createdAt,value
2022-09-11T00:00:21.962Z,24.69
2022-09-11T00:03:25.322Z,24.61
2022-09-11T00:06:30.214Z,24.52
2022-09-11T00:09:33.448Z,24.47
2022-09-11T00:12:36.640Z,24.42
2022-09-11T00:15:42.286Z,24.43
2022-09-11T00:18:47.027Z,24.42
2022-09-11T00:21:51.048Z,24.41
2022-09-11T00:24:55.097Z,24.38
2022-09-11T00:27:58.120Z,24.34
2022-09-11T00:31:04.143Z,24.40
2022-09-11T00:34:08.133Z,24.38
2022-09-11T00:37:11.111Z,24.33
2022-09-11T00:40:15.498Z,24.35
2022-09-11T00:43:18.872Z,24.43
2022-09-11T00:46:26.216Z,24.52
2022-09-11T00:49:34.212Z,24.55
2022-09-11T00:52:42.566Z,24.56
2022-09-11T00:55:51.339Z,24.56
2022-09-11T00:58:56.222Z,24.52
2022-09-11T01:02:00.877Z,24.57
2022-09-11T01:05:06.117Z,24.54
2022-09-11T01:08:10.521Z,24.48
2022-09-11T01:11:33.435Z,24.51
2022-09-11T01:14:45.451Z,24.55
2022-09-11T01:17:57.346Z,24.57
2022-09-11T01:21:33.919Z,24.55
2022-09-11T01:24:57.422Z,24.53
2022-09-11T01:28:10.206Z,24.53
2022-09-11T01:31:15.870Z,24.55
2022-09-11T01:34:24.122Z,24.52
2022-09-11T01:37:36.854Z,24.53
2022-09-11T01:40:45.940Z,24.54
2022-09-11T01:43:57.126Z,24.50
2022-09-11T01:47:00.413Z,24.54
2022-09-11T01:50:07.254Z,24.54
2022-09-11T01:53:14.094Z,24.55
2022-09-11T01:56:23.517Z,24.57
2022-09-11T01:59:33.433Z,24.57
2022-09-11T02:02:39.491Z,24.53
2022-09-11T02:05:47.604Z,24.52
2022-09-11T02:08:54.663Z,24.37
2022-09-11T02:12:04.062Z,24.45
2022-09-11T02:15:09.663Z,24.49
2022-09-11T02:18:19.407Z,24.36
2022-09-11T02:21:22.558Z,24.38
2022-09-11T02:24:26.382Z,24.43
2022-09-11T02:27:31.467Z,24.43
2022-09-11T02:30:35.938Z,24.43
2022-09-11T02:33:39.319Z,24.38
2022-09-11T02:37:03.302Z,24.31
2022-09-11T02:40:20.530Z,24.39
2022-09-11T02:43:44.465Z,24.39
2022-09-11T02:47:01.106Z,24.37
2022-09-11T02:50:13.213Z,24.30
2022-09-11T02:53:26.885Z,24.29
2022-09-11T02:56:36.992Z,24.32
2022-09-11T02:59:43.717Z,24.27
2022-09-11T03:02:48.889Z,24.28
2022-09-11T03:05:52.055Z,24.30
2022-09-11T03:08:55.703Z,24.32
2022-09-11T03:11:58.698Z,24.30
2022-09-11T03:15:03.078Z,24.30
2022-09-11T03:18:08.165Z,24.32
2022-09-11T03:21:12.277Z,24.27
2022-09-11T03:24:15.776Z,24.30
2022-09-11T03:27:18.841Z,24.35
2022-09-11T03:30:22.000Z,24.28
2022-09-11T03:33:26.693Z,24.15
2022-09-11T03:36:29.859Z,24.13
2022-09-11T03:39:33.036Z,24.16
2022-09-11T03:42:36.212Z,24.15
2022-09-11T03:45:39.406Z,24.24
2022-09-11T03:48:46.249Z,24.25
2022-09-11T03:51:49.345Z,24.27
2022-09-11T03:54:52.435Z,24.29
2022-09-11T03:57:55.966Z,24.32
2022-09-11T04:00:59.027Z,24.28
2022-09-11T04:04:04.323Z,24.31
2022-09-11T04:07:07.416Z,24.31
2022-09-11T04:10:11.004Z,24.29
2022-09-11T04:13:14.461Z,24.27
2022-09-11T04:16:19.703Z,24.19
2022-09-11T04:19:24.164Z,24.21
2022-09-11T04:22:28.002Z,24.18
2022-09-11T04:25:32.515Z,24.21
2022-09-11T04:28:37.308Z,24.30
2022-09-11T04:31:41.326Z,24.34
2022-09-11T04:34:45.915Z,24.38
2022-09-11T04:37:49.232Z,24.27
2022-09-11T04:40:53.371Z,24.19
2022-09-11T04:44:01.120Z,24.31
2022-09-11T04:47:07.187Z,24.34
2022-09-11T04:50:12.923Z,24.34
2022-09-11T04:53:16.314Z,24.41
2022-09-11T04:56:21.963Z,24.43
2022-09-11T04:59:25.373Z,24.38
2022-09-11T05:02:28.413Z,24.45
2022-09-11T05:05:32.842Z,24.48
2022-09-11T05:08:36.824Z,24.47
2022-09-11T05:11:39.838Z,24.16
2022-09-11T05:14:42.851Z,23.90
2022-09-11T05:17:46.433Z,23.73
2022-09-11T05:21:00.600Z,23.55
2022-09-11T05:24:04.496Z,23.82
2022-09-11T05:27:08.235Z,23.84
2022-09-11T05:30:12.677Z,23.25
2022-09-11T05:33:15.789Z,23.20
2022-09-11T05:36:20.327Z,23.32
2022-09-11T05:39:23.362Z,23.55
2022-09-11T05:42:28.722Z,23.59
2022-09-11T05:45:31.923Z,23.70
2022-09-11T05:48:37.023Z,24.00
2022-09-11T05:51:48.299Z,24.37
2022-09-11T05:54:51.570Z,24.27
2022-09-11T05:57:54.869Z,24.20
2022-09-11T06:01:05.164Z,24.07
2022-09-11T06:04:11.216Z,23.95
2022-09-11T06:07:15.857Z,24.09
2022-09-11T06:10:18.983Z,24.28
2022-09-11T06:13:22.592Z,24.23
2022-09-11T06:16:26.512Z,24.06
2022-09-11T06:19:29.586Z,24.08
2022-09-11T06:22:37.776Z,24.10
2022-09-11T06:25:40.867Z,24.23
2022-09-11T06:28:44.114Z,24.37
2022-09-11T06:31:49.037Z,24.46
2022-09-11T06:38:17.677Z,24.61
2022-09-11T06:41:20.918Z,24.73
2022-09-11T06:44:27.548Z,24.91
2022-09-11T06:47:31.483Z,24.98
2022-09-11T06:50:42.171Z,24.97
2022-09-11T06:53:52.471Z,24.90
2022-09-11T06:56:59.995Z,24.90
2022-09-11T07:03:58.443Z,25.00
2022-09-11T07:11:14.020Z,25.00
2022-09-11T07:14:24.952Z,24.99
2022-09-11T07:18:13.246Z,24.96
2022-09-11T07:21:36.741Z,25.04
2022-09-11T07:24:58.578Z,25.04
2022-09-11T07:28:12.860Z,25.04
2022-09-11T07:31:24.443Z,25.03
2022-09-11T07:34:31.425Z,25.01
2022-09-11T07:38:02.094Z,25.00
2022-09-11T07:41:16.383Z,25.16
2022-09-11T07:44:39.866Z,25.11
2022-09-11T07:47:55.048Z,25.12
2022-09-11T07:54:53.235Z,25.23
2022-09-11T07:58:32.422Z,25.47
2022-09-11T08:01:54.776Z,25.54
2022-09-11T08:05:39.688Z,25.49
2022-09-11T08:12:28.339Z,25.40
2022-09-11T08:15:46.010Z,25.43
2022-09-11T08:18:52.283Z,25.62
2022-09-11T08:21:56.206Z,25.57
2022-09-11T08:24:59.350Z,25.58
2022-09-11T08:28:02.843Z,25.65
2022-09-11T08:31:07.071Z,25.63
2022-09-11T08:34:12.302Z,25.60
2022-09-11T08:37:15.335Z,25.65
2022-09-11T08:40:19.302Z,25.64
2022-09-11T08:43:26.642Z,25.71
2022-09-11T08:46:36.285Z,25.73
2022-09-11T08:49:44.253Z,25.74
2022-09-11T08:52:48.808Z,25.79
2022-09-11T08:56:00.408Z,25.79
2022-09-11T08:59:15.311Z,25.73
2022-09-11T09:02:32.514Z,25.73
2022-09-11T09:05:43.314Z,25.73
2022-09-11T09:08:53.843Z,25.79
2022-09-11T09:12:05.302Z,25.80
2022-09-11T09:15:18.606Z,25.75
2022-09-11T09:18:30.431Z,25.78
2022-09-11T09:21:39.770Z,25.83
2022-09-11T09:24:47.505Z,25.80
2022-09-11T09:27:53.598Z,25.78
2022-09-11T09:30:59.563Z,25.85
2022-09-11T09:34:07.221Z,25.78
2022-09-11T09:37:19.114Z,25.62
2022-09-11T09:40:25.679Z,25.63
2022-09-11T09:43:42.142Z,25.53
2022-09-11T09:46:50.804Z,25.44
2022-09-11T09:49:56.600Z,25.42
2022-09-11T09:53:05.147Z,25.41
2022-09-11T09:56:09.030Z,25.46
2022-09-11T09:59:18.227Z,25.45
2022-09-11T10:02:43.358Z,25.50
2022-09-11T10:05:46.790Z,25.72
2022-09-11T10:09:01.412Z,25.85
2022-09-11T10:12:08.786Z,25.93
2022-09-11T10:15:22.582Z,25.98
2022-09-11T10:18:36.054Z,26.00
2022-09-11T10:21:39.684Z,26.03
2022-09-11T10:24:45.014Z,26.03
2022-09-11T10:27:56.779Z,26.01
2022-09-11T10:31:02.530Z,26.00
2022-09-11T10:34:07.416Z,26.03
2022-09-11T10:37:25.312Z,26.02
2022-09-11T10:40:31.132Z,25.99
2022-09-11T10:43:39.526Z,25.98
2022-09-11T10:46:44.262Z,26.00
2022-09-11T10:49:47.902Z,26.00
2022-09-11T10:53:07.282Z,25.97
2022-09-11T10:56:12.068Z,25.98
2022-09-11T10:59:20.665Z,25.95
2022-09-11T11:02:31.806Z,25.95
2022-09-11T11:05:46.030Z,25.96
2022-09-11T11:09:06.291Z,26.04
2022-09-11T11:12:32.178Z,26.03
2022-09-11T11:15:52.308Z,26.05
2022-09-11T11:19:23.216Z,26.08
2022-09-11T11:22:42.053Z,26.09
2022-09-11T11:25:54.310Z,26.11
2022-09-11T11:29:39.946Z,26.07
2022-09-11T11:33:01.937Z,26.13
2022-09-11T11:36:08.935Z,26.08
2022-09-11T11:39:24.035Z,26.10
2022-09-11T11:42:31.299Z,26.14
2022-09-11T11:45:40.542Z,26.06
2022-09-11T11:48:51.397Z,26.10
2022-09-11T11:52:02.794Z,26.13
2022-09-11T11:55:17.081Z,26.07
2022-09-11T11:58:35.745Z,26.08
2022-09-11T12:01:45.333Z,26.04
2022-09-11T12:04:56.155Z,26.05
2022-09-11T12:08:00.211Z,26.07
2022-09-11T12:11:08.085Z,26.09
2022-09-11T12:14:40.277Z,26.07
2022-09-11T12:18:26.456Z,26.03
2022-09-11T12:22:10.987Z,26.04
2022-09-11T12:26:15.286Z,26.05
2022-09-11T12:30:01.169Z,26.09
2022-09-11T12:33:49.929Z,26.09
2022-09-11T12:37:12.670Z,26.06
2022-09-11T12:40:31.588Z,26.05
2022-09-11T12:43:53.680Z,26.03
2022-09-11T12:47:24.707Z,25.93
2022-09-11T12:50:30.021Z,25.75
2022-09-11T12:53:36.549Z,25.72
2022-09-11T12:56:47.981Z,25.67
2022-09-11T12:59:56.042Z,25.65
2022-09-11T13:02:59.924Z,25.65
2022-09-11T13:06:06.901Z,25.65
2022-09-11T13:09:20.941Z,25.68
2022-09-11T13:12:50.469Z,25.69
2022-09-11T13:15:57.365Z,25.68
2022-09-11T13:19:03.638Z,25.67
2022-09-11T13:22:22.959Z,25.71
2022-09-11T13:25:28.282Z,25.77
2022-09-11T13:28:32.411Z,25.93
2022-09-11T13:31:37.227Z,25.92
2022-09-11T13:34:45.358Z,25.90
2022-09-11T13:42:12.234Z,25.84
2022-09-11T13:45:33.243Z,25.82
2022-09-11T13:49:02.890Z,25.82
2022-09-11T13:52:33.644Z,25.79
2022-09-11T13:55:59.325Z,25.79
2022-09-11T13:59:55.699Z,25.81
2022-09-11T14:03:09.586Z,25.77
2022-09-11T14:06:26.179Z,25.70
2022-09-11T14:09:43.651Z,25.73
2022-09-11T14:13:46.084Z,25.73
2022-09-11T14:17:03.995Z,25.79
2022-09-11T14:20:25.425Z,25.78
2022-09-11T14:24:04.029Z,25.78
2022-09-11T14:27:55.756Z,25.84
2022-09-11T14:31:52.544Z,25.77
2022-09-11T14:35:01.622Z,25.76
2022-09-11T14:38:10.401Z,25.74
2022-09-11T14:41:18.879Z,25.75
2022-09-11T14:44:57.991Z,25.72
2022-09-11T14:51:40.345Z,25.62
2022-09-11T14:55:04.531Z,25.63
2022-09-11T14:58:11.897Z,25.63
2022-09-11T15:01:15.540Z,25.66
2022-09-11T15:04:21.575Z,25.67
2022-09-11T15:07:27.459Z,25.64
2022-09-11T15:10:33.164Z,25.56
2022-09-11T15:13:36.462Z,25.54
2022-09-11T15:16:39.483Z,25.66
2022-09-11T15:19:42.663Z,25.73
2022-09-11T15:22:47.049Z,25.65
2022-09-11T15:25:50.053Z,25.68
2022-09-11T15:28:53.428Z,25.59
2022-09-11T15:31:56.922Z,25.52
2022-09-11T15:34:59.996Z,25.46
2022-09-11T15:38:05.624Z,25.44
2022-09-11T15:41:10.869Z,25.43
2022-09-11T15:44:19.989Z,25.37
2022-09-11T15:47:23.381Z,25.34
2022-09-11T15:50:30.090Z,25.37
2022-09-11T15:53:36.924Z,25.40
2022-09-11T15:56:40.075Z,25.41
2022-09-11T15:59:43.318Z,25.43
2022-09-11T16:02:46.382Z,25.42
2022-09-11T16:05:49.461Z,25.38
2022-09-11T16:08:57.315Z,25.31
2022-09-11T16:12:01.938Z,25.33
2022-09-11T16:15:05.571Z,25.26
2022-09-11T16:18:09.776Z,25.28
2022-09-11T16:21:14.875Z,25.32
2022-09-11T16:24:19.360Z,25.32
2022-09-11T16:27:23.323Z,25.33
2022-09-11T16:30:42.674Z,25.32
2022-09-11T16:33:48.691Z,25.32
2022-09-11T16:36:54.907Z,25.35
2022-09-11T16:39:59.425Z,25.42
2022-09-11T16:43:02.595Z,25.41
2022-09-11T16:46:05.844Z,25.40
2022-09-11T16:49:09.113Z,25.40
2022-09-11T16:52:12.388Z,25.37
2022-09-11T16:55:17.027Z,25.32
2022-09-11T16:58:21.314Z,25.33
2022-09-11T17:01:26.781Z,25.35
2022-09-11T17:04:29.837Z,25.37
2022-09-11T17:07:33.123Z,25.37
2022-09-11T17:10:37.723Z,25.39
2022-09-11T17:13:41.644Z,25.45
2022-09-11T17:16:45.007Z,25.48
2022-09-11T17:19:51.306Z,25.66
2022-09-11T17:22:58.066Z,25.68
2022-09-11T17:26:07.723Z,25.61
2022-09-11T17:29:10.975Z,25.59
2022-09-11T17:32:27.817Z,25.57
2022-09-11T17:35:36.227Z,25.54
2022-09-11T17:38:41.495Z,25.53
2022-09-11T17:41:46.226Z,25.57
2022-09-11T17:44:49.302Z,25.57
2022-09-11T17:47:52.764Z,25.55
2022-09-11T17:51:01.912Z,25.63
2022-09-11T17:54:05.451Z,25.71
2022-09-11T17:57:10.207Z,25.70
2022-09-11T18:00:14.814Z,25.70
2022-09-11T18:03:18.116Z,25.69
2022-09-11T18:06:25.959Z,25.68
2022-09-11T18:09:29.426Z,25.69
2022-09-11T18:12:35.429Z,25.65
2022-09-11T18:15:38.641Z,25.65
2022-09-11T18:18:43.223Z,25.67
2022-09-11T18:21:50.024Z,25.78
2022-09-11T18:24:53.529Z,25.79
2022-09-11T18:27:59.884Z,25.80
2022-09-11T18:31:04.917Z,25.79
2022-09-11T18:34:08.243Z,25.81
2022-09-11T18:37:11.497Z,25.76
2022-09-11T18:40:14.674Z,25.76
2022-09-11T18:43:19.644Z,25.68
2022-09-11T18:46:27.478Z,25.69
2022-09-11T18:49:30.652Z,25.72
2022-09-11T18:52:34.199Z,25.69
2022-09-11T18:55:38.229Z,25.71
2022-09-11T18:58:43.010Z,25.70
2022-09-11T19:01:46.251Z,25.70
2022-09-11T19:04:49.722Z,25.69
2022-09-11T19:07:55.262Z,25.71
2022-09-11T19:11:00.223Z,25.68
2022-09-11T19:14:07.062Z,25.67
2022-09-11T19:17:10.170Z,25.67
2022-09-11T19:20:13.404Z,25.62
2022-09-11T19:23:17.938Z,25.64
2022-09-11T19:26:22.854Z,25.64
2022-09-11T19:29:27.542Z,25.66
2022-09-11T19:32:31.526Z,25.66
2022-09-11T19:35:34.875Z,25.63
2022-09-11T19:38:41.097Z,25.63
2022-09-11T19:41:44.144Z,25.62
2022-09-11T19:44:50.336Z,25.63
2022-09-11T19:47:55.434Z,25.63
2022-09-11T19:51:00.319Z,25.53
2022-09-11T19:54:04.118Z,25.42
2022-09-11T19:57:08.402Z,25.38
2022-09-11T20:00:14.092Z,25.36
2022-09-11T20:03:17.420Z,25.36
2022-09-11T20:06:23.043Z,25.36
2022-09-11T20:09:33.149Z,25.35
2022-09-11T20:12:37.264Z,25.31
2022-09-11T20:15:42.788Z,25.31
2022-09-11T20:18:45.887Z,25.30
2022-09-11T20:21:49.366Z,25.31
2022-09-11T20:24:52.761Z,25.28
2022-09-11T20:27:55.917Z,25.26
2022-09-11T20:31:00.536Z,25.26
2022-09-11T20:34:03.954Z,25.23
2022-09-11T20:37:10.173Z,25.23
2022-09-11T20:40:13.541Z,25.20
2022-09-11T20:43:16.720Z,25.21
2022-09-11T20:46:21.613Z,25.21
2022-09-11T20:49:24.910Z,25.19
2022-09-11T20:52:27.995Z,25.20
2022-09-11T20:55:31.132Z,25.17
2022-09-11T20:58:35.015Z,25.16
2022-09-11T21:01:39.511Z,25.16
2022-09-11T21:04:42.710Z,25.11
2022-09-11T21:07:46.020Z,25.13
2022-09-11T21:10:49.504Z,25.11
2022-09-11T21:13:52.841Z,25.13
2022-09-11T21:16:58.340Z,25.09
2022-09-11T21:20:01.367Z,25.11
2022-09-11T21:23:04.607Z,25.07
2022-09-11T21:26:08.566Z,25.09
2022-09-11T21:29:14.262Z,25.08
2022-09-11T21:32:18.700Z,25.10
2022-09-11T21:35:21.885Z,25.09
2022-09-11T21:38:28.560Z,25.09
2022-09-11T21:41:31.551Z,25.06
2022-09-11T21:44:34.653Z,25.07
2022-09-11T21:47:39.276Z,25.07
2022-09-11T21:50:42.594Z,25.08
2022-09-11T21:53:48.107Z,25.04
2022-09-11T21:56:51.286Z,25.06
2022-09-11T21:59:54.372Z,25.03
2022-09-11T22:02:59.350Z,25.03
2022-09-11T22:06:07.172Z,25.04
2022-09-11T22:09:10.390Z,25.03
2022-09-11T22:12:13.591Z,25.02
2022-09-11T22:15:16.656Z,25.02
2022-09-11T22:18:21.160Z,25.03
2022-09-11T22:21:25.418Z,25.01
2022-09-11T22:24:28.632Z,25.02
2022-09-11T22:27:31.682Z,25.01
2022-09-11T22:30:34.895Z,24.96
2022-09-11T22:33:47.317Z,24.99
2022-09-11T22:36:50.504Z,24.99
2022-09-11T22:39:53.885Z,25.00
2022-09-11T22:42:57.103Z,25.00
2022-09-11T22:46:00.347Z,24.97
2022-09-11T22:49:04.824Z,24.98
2022-09-11T22:52:08.562Z,24.98
2022-09-11T22:55:12.050Z,24.98
2022-09-11T22:58:15.292Z,24.96
2022-09-11T23:01:22.197Z,24.96
2022-09-11T23:04:27.024Z,24.96
2022-09-11T23:07:29.528Z,24.91
2022-09-11T23:10:32.612Z,24.94
2022-09-11T23:13:36.214Z,24.94
2022-09-11T23:16:39.303Z,24.91
2022-09-11T23:19:43.774Z,24.92
2022-09-11T23:22:46.986Z,24.89
2022-09-11T23:25:50.155Z,24.93
2022-09-11T23:28:53.629Z,24.92
2022-09-11T23:31:57.702Z,24.90
2022-09-11T23:35:02.232Z,24.92
2022-09-11T23:38:05.405Z,24.90
2022-09-11T23:41:08.382Z,24.91
2022-09-11T23:44:11.840Z,24.91
2022-09-11T23:47:14.917Z,24.92
2022-09-11T23:50:22.606Z,24.92
2022-09-11T23:53:25.726Z,24.92
2022-09-11T23:56:28.945Z,24.89
2022-09-11T23:59:35.999Z,24.89
